Terminal Aerodrome Forecast
Issued by NWS

Home | Current Version | Previous Version | Text Only | Print | Product List | Glossary On
Versions: 1 2 3 4 5 6 7 8 9 10 11 12 13 14 15 16
000
FTUS42 KTBW 242300
TAFRSW
TAF
KRSW 242327Z 2500/2524 19009KT P6SM VCTS SCT020CB BKN060
      TEMPO 2502/2505 4SM TSRA SCT010 BKN020CB
     FM250500 30008KT P6SM VCSH SCT010 BKN020 OVC060
     FM250900 33008KT P6SM SCT015 BKN020
     FM251600 36005KT P6SM SCT025 BKN060=

USA.gov is the U.S. government's official web portal to all federal, state and local government web resources and services.